sensor_id;sensor_type;location;lat;lon;timestamp;pressure;altitude;pressure_sealevel;temperature;humidity
70242;BME280;57631;52.218;0.108;2022-09-09T00:02:04;100221.21;;;20.24;59.99
70242;BME280;57631;52.218;0.108;2022-09-09T00:04:28;100220.77;;;18.80;63.68
70242;BME280;57631;52.218;0.108;2022-09-09T00:06:59;100219.99;;;19.55;62.61
70242;BME280;57631;52.218;0.108;2022-09-09T00:09:19;100218.45;;;19.88;60.96
70242;BME280;57631;52.218;0.108;2022-09-09T00:11:45;100217.59;;;19.84;60.86
70242;BME280;57631;52.218;0.108;2022-09-09T00:14:15;100218.43;;;20.42;58.86
70242;BME280;57631;52.218;0.108;2022-09-09T00:16:36;100214.90;;;18.27;64.32
70242;BME280;57631;52.218;0.108;2022-09-09T00:19:03;100214.07;;;18.40;64.57
70242;BME280;57631;52.218;0.108;2022-09-09T00:21:27;100211.96;;;18.26;66.38
70242;BME280;57631;52.218;0.108;2022-09-09T00:23:52;100208.06;;;19.34;61.71
70242;BME280;57631;52.218;0.108;2022-09-09T00:26:20;100209.71;;;19.95;60.61
70242;BME280;57631;52.218;0.108;2022-09-09T00:28:48;100209.43;;;19.91;60.38
70242;BME280;57631;52.218;0.108;2022-09-09T00:31:12;100209.72;;;19.74;59.89
70242;BME280;57631;52.218;0.108;2022-09-09T00:33:31;100211.91;;;17.89;64.75
70242;BME280;57631;52.218;0.108;2022-09-09T00:35:58;100208.90;;;19.44;60.45
70242;BME280;57631;52.218;0.108;2022-09-09T00:38:26;100206.18;;;19.90;59.88
70242;BME280;57631;52.218;0.108;2022-09-09T00:40:52;100202.89;;;20.53;58.43
70242;BME280;57631;52.218;0.108;2022-09-09T00:43:24;100200.07;;;18.85;62.91
70242;BME280;57631;52.218;0.108;2022-09-09T00:48:07;100200.08;;;19.86;61.19
70242;BME280;57631;52.218;0.108;2022-09-09T00:50:38;100203.11;;;20.24;59.11
70242;BME280;57631;52.218;0.108;2022-09-09T00:53:02;100196.47;;;20.71;57.87
70242;BME280;57631;52.218;0.108;2022-09-09T00:55:25;100192.69;;;20.73;57.87
70242;BME280;57631;52.218;0.108;2022-09-09T00:57:46;100191.81;;;20.91;57.77
70242;BME280;57631;52.218;0.108;2022-09-09T01:00:17;100189.64;;;20.61;57.88
70242;BME280;57631;52.218;0.108;2022-09-09T01:02:41;100189.08;;;20.76;57.61
70242;BME280;57631;52.218;0.108;2022-09-09T01:05:05;100192.25;;;20.13;58.47
70242;BME280;57631;52.218;0.108;2022-09-09T01:07:27;100189.41;;;20.40;57.78
70242;BME280;57631;52.218;0.108;2022-09-09T01:09:55;100187.72;;;20.88;57.19
70242;BME280;57631;52.218;0.108;2022-09-09T01:12:24;100188.69;;;20.95;57.19
70242;BME280;57631;52.218;0.108;2022-09-09T01:14:47;100187.81;;;21.18;56.62
70242;BME280;57631;52.218;0.108;2022-09-09T01:17:14;100190.93;;;20.73;56.89
70242;BME280;57631;52.218;0.108;2022-09-09T01:19:41;100187.83;;;20.34;57.52
70242;BME280;57631;52.218;0.108;2022-09-09T01:22:03;100189.63;;;19.30;60.69
70242;BME280;57631;52.218;0.108;2022-09-09T01:24:29;100192.66;;;19.68;60.13
70242;BME280;57631;52.218;0.108;2022-09-09T01:26:51;100196.44;;;19.78;60.32
70242;BME280;57631;52.218;0.108;2022-09-09T01:29:17;100195.95;;;20.30;58.56
70242;BME280;57631;52.218;0.108;2022-09-09T01:31:43;100196.67;;;19.85;60.11
70242;BME280;57631;52.218;0.108;2022-09-09T01:34:10;100197.66;;;20.05;59.73
70242;BME280;57631;52.218;0.108;2022-09-09T01:36:37;100194.98;;;20.79;57.01
70242;BME280;57631;52.218;0.108;2022-09-09T01:38:56;100200.09;;;19.92;59.82
70242;BME280;57631;52.218;0.108;2022-09-09T01:41:21;100197.78;;;20.59;58.26
70242;BME280;57631;52.218;0.108;2022-09-09T01:43:47;100195.13;;;20.91;57.53
70242;BME280;57631;52.218;0.108;2022-09-09T01:46:12;100192.21;;;21.20;56.33
70242;BME280;57631;52.218;0.108;2022-09-09T01:48:37;100191.10;;;21.11;56.08
70242;BME280;57631;52.218;0.108;2022-09-09T01:51:03;100188.18;;;21.59;55.26
70242;BME280;57631;52.218;0.108;2022-09-09T01:53:28;100189.21;;;21.10;56.11
70242;BME280;57631;52.218;0.108;2022-09-09T01:56:02;100191.37;;;20.86;56.91
70242;BME280;57631;52.218;0.108;2022-09-09T01:58:27;100187.47;;;21.30;56.32
70242;BME280;57631;52.218;0.108;2022-09-09T02:00:50;100184.20;;;21.36;55.69
70242;BME280;57631;52.218;0.108;2022-09-09T02:03:17;100185.80;;;21.03;57.51
70242;BME280;57631;52.218;0.108;2022-09-09T02:05:37;100186.76;;;21.59;55.57
70242;BME280;57631;52.218;0.108;2022-09-09T02:08:06;100183.29;;;21.51;55.43
70242;BME280;57631;52.218;0.108;2022-09-09T02:10:32;100178.25;;;21.86;54.63
70242;BME280;57631;52.218;0.108;2022-09-09T02:12:58;100176.41;;;21.76;54.24
70242;BME280;57631;52.218;0.108;2022-09-09T02:15:20;100173.37;;;21.98;54.31
70242;BME280;57631;52.218;0.108;2022-09-09T02:17:42;100169.57;;;21.61;54.97
70242;BME280;57631;52.218;0.108;2022-09-09T02:20:09;100166.25;;;22.01;54.39
70242;BME280;57631;52.218;0.108;2022-09-09T02:22:33;100168.25;;;21.33;55.37
70242;BME280;57631;52.218;0.108;2022-09-09T02:24:59;100172.09;;;21.46;55.64
70242;BME280;57631;52.218;0.108;2022-09-09T02:27:23;100170.27;;;21.39;55.69
70242;BME280;57631;52.218;0.108;2022-09-09T02:29:49;100164.01;;;21.48;55.40
70242;BME280;57631;52.218;0.108;2022-09-09T02:32:17;100161.23;;;21.47;55.40
70242;BME280;57631;52.218;0.108;2022-09-09T02:34:43;100159.55;;;21.72;55.52
70242;BME280;57631;52.218;0.108;2022-09-09T02:37:07;100161.14;;;21.52;55.37
70242;BME280;57631;52.218;0.108;2022-09-09T02:39:30;100162.34;;;21.34;55.26
70242;BME280;57631;52.218;0.108;2022-09-09T02:41:55;100162.25;;;21.12;55.54
70242;BME280;57631;52.218;0.108;2022-09-09T02:44:21;100157.95;;;20.90;56.48
70242;BME280;57631;52.218;0.108;2022-09-09T02:47:00;100154.06;;;21.42;55.32
70242;BME280;57631;52.218;0.108;2022-09-09T02:49:16;100155.41;;;21.48;55.00
70242;BME280;57631;52.218;0.108;2022-09-09T02:51:44;100155.20;;;21.45;55.31
70242;BME280;57631;52.218;0.108;2022-09-09T02:54:10;100156.42;;;21.32;55.98
70242;BME280;57631;52.218;0.108;2022-09-09T02:56:31;100159.26;;;21.53;55.74
70242;BME280;57631;52.218;0.108;2022-09-09T02:58:52;100163.44;;;20.81;56.95
70242;BME280;57631;52.218;0.108;2022-09-09T03:01:18;100164.69;;;21.23;55.99
70242;BME280;57631;52.218;0.108;2022-09-09T03:03:43;100166.92;;;20.89;56.33
70242;BME280;57631;52.218;0.108;2022-09-09T03:06:09;100170.14;;;20.65;57.32
70242;BME280;57631;52.218;0.108;2022-09-09T03:08:34;100173.12;;;21.05;57.87
70242;BME280;57631;52.218;0.108;2022-09-09T03:10:59;100171.41;;;20.55;57.89
70242;BME280;57631;52.218;0.108;2022-09-09T03:13:25;100173.38;;;21.00;57.53
70242;BME280;57631;52.218;0.108;2022-09-09T03:15:50;100174.93;;;21.19;57.54
70242;BME280;57631;52.218;0.108;2022-09-09T03:18:16;100176.51;;;21.04;57.59
70242;BME280;57631;52.218;0.108;2022-09-09T03:20:42;100178.32;;;20.51;58.10
70242;BME280;57631;52.218;0.108;2022-09-09T03:23:06;100179.49;;;20.69;57.53
70242;BME280;57631;52.218;0.108;2022-09-09T03:25:31;100178.17;;;20.69;57.88
70242;BME280;57631;52.218;0.108;2022-09-09T03:27:57;100181.68;;;20.41;58.04
70242;BME280;57631;52.218;0.108;2022-09-09T03:30:22;100182.77;;;20.68;57.75
70242;BME280;57631;52.218;0.108;2022-09-09T03:32:47;100185.11;;;20.60;57.47
70242;BME280;57631;52.218;0.108;2022-09-09T03:35:13;100185.59;;;20.79;56.84
70242;BME280;57631;52.218;0.108;2022-09-09T03:37:38;100186.52;;;20.66;57.24
70242;BME280;57631;52.218;0.108;2022-09-09T03:40:04;100186.70;;;20.68;57.16
70242;BME280;57631;52.218;0.108;2022-09-09T03:42:29;100187.36;;;20.72;57.19
70242;BME280;57631;52.218;0.108;2022-09-09T03:44:54;100191.53;;;21.00;57.62
70242;BME280;57631;52.218;0.108;2022-09-09T03:47:20;100195.69;;;20.78;57.56
70242;BME280;57631;52.218;0.108;2022-09-09T03:49:45;100200.49;;;20.40;58.12
70242;BME280;57631;52.218;0.108;2022-09-09T03:52:10;100195.98;;;20.45;57.59
70242;BME280;57631;52.218;0.108;2022-09-09T03:54:35;100198.24;;;20.28;57.74
70242;BME280;57631;52.218;0.108;2022-09-09T03:57:01;100200.58;;;20.49;58.77
70242;BME280;57631;52.218;0.108;2022-09-09T03:59:26;100198.30;;;20.05;58.73
70242;BME280;57631;52.218;0.108;2022-09-09T04:01:52;100198.28;;;19.82;59.62
70242;BME280;57631;52.218;0.108;2022-09-09T04:04:17;100199.91;;;19.93;59.31
70242;BME280;57631;52.218;0.108;2022-09-09T04:06:42;100201.14;;;20.05;59.58
70242;BME280;57631;52.218;0.108;2022-09-09T04:09:08;100199.31;;;19.80;60.59
70242;BME280;57631;52.218;0.108;2022-09-09T04:11:33;100202.66;;;19.30;62.08
70242;BME280;57631;52.218;0.108;2022-09-09T04:13:58;100199.91;;;19.26;61.72
70242;BME280;57631;52.218;0.108;2022-09-09T04:16:24;100199.27;;;19.60;61.80
70242;BME280;57631;52.218;0.108;2022-09-09T04:18:49;100197.44;;;19.49;61.51
70242;BME280;57631;52.218;0.108;2022-09-09T04:21:15;100196.68;;;19.43;61.58
70242;BME280;57631;52.218;0.108;2022-09-09T04:23:40;100192.64;;;19.41;61.01
70242;BME280;57631;52.218;0.108;2022-09-09T04:26:05;100190.25;;;20.05;60.57
70242;BME280;57631;52.218;0.108;2022-09-09T04:28:32;100192.64;;;19.78;60.12
70242;BME280;57631;52.218;0.108;2022-09-09T04:30:56;100191.56;;;20.14;59.04
70242;BME280;57631;52.218;0.108;2022-09-09T04:33:21;100189.63;;;20.00;59.50
70242;BME280;57631;52.218;0.108;2022-09-09T04:35:48;100193.32;;;19.99;58.34
70242;BME280;57631;52.218;0.108;2022-09-09T04:38:12;100196.76;;;20.33;57.90
70242;BME280;57631;52.218;0.108;2022-09-09T04:40:37;100198.28;;;20.63;57.72
70242;BME280;57631;52.218;0.108;2022-09-09T04:43:03;100201.05;;;20.03;58.60
70242;BME280;57631;52.218;0.108;2022-09-09T04:45:27;100207.25;;;20.32;58.11
70242;BME280;57631;52.218;0.108;2022-09-09T04:47:54;100211.11;;;20.48;58.12
70242;BME280;57631;52.218;0.108;2022-09-09T04:50:19;100211.03;;;20.27;58.32
70242;BME280;57631;52.218;0.108;2022-09-09T04:52:44;100210.64;;;20.29;57.85
70242;BME280;57631;52.218;0.108;2022-09-09T04:55:09;100209.46;;;20.65;57.41
70242;BME280;57631;52.218;0.108;2022-09-09T04:57:34;100217.31;;;20.54;57.55
70242;BME280;57631;52.218;0.108;2022-09-09T05:00:00;100218.39;;;20.42;57.24
70242;BME280;57631;52.218;0.108;2022-09-09T05:02:26;100216.02;;;20.10;58.14
70242;BME280;57631;52.218;0.108;2022-09-09T05:04:51;100216.15;;;19.29;59.50
70242;BME280;57631;52.218;0.108;2022-09-09T05:07:16;100220.02;;;19.64;59.34
70242;BME280;57631;52.218;0.108;2022-09-09T05:09:42;100221.27;;;19.91;58.90
70242;BME280;57631;52.218;0.108;2022-09-09T05:12:07;100226.96;;;19.79;58.81
70242;BME280;57631;52.218;0.108;2022-09-09T05:14:33;100226.39;;;19.77;58.77
70242;BME280;57631;52.218;0.108;2022-09-09T05:16:59;100231.31;;;19.76;59.48
70242;BME280;57631;52.218;0.108;2022-09-09T05:19:25;100229.20;;;19.85;59.47
70242;BME280;57631;52.218;0.108;2022-09-09T05:21:50;100228.92;;;19.88;59.14
70242;BME280;57631;52.218;0.108;2022-09-09T05:24:15;100233.06;;;19.06;60.68
70242;BME280;57631;52.218;0.108;2022-09-09T05:26:40;100231.47;;;18.77;61.22
70242;BME280;57631;52.218;0.108;2022-09-09T05:29:06;100232.87;;;18.93;61.68
70242;BME280;57631;52.218;0.108;2022-09-09T05:31:32;100234.82;;;18.35;63.04
70242;BME280;57631;52.218;0.108;2022-09-09T05:33:58;100237.47;;;18.03;65.43
70242;BME280;57631;52.218;0.108;2022-09-09T05:36:23;100237.78;;;17.89;65.31
70242;BME280;57631;52.218;0.108;2022-09-09T05:38:49;100240.52;;;17.64;66.28
70242;BME280;57631;52.218;0.108;2022-09-09T05:41:15;100245.39;;;17.48;67.48
70242;BME280;57631;52.218;0.108;2022-09-09T05:43:39;100245.12;;;16.99;68.43
70242;BME280;57631;52.218;0.108;2022-09-09T05:46:06;100245.73;;;17.12;69.20
70242;BME280;57631;52.218;0.108;2022-09-09T05:48:31;100246.02;;;17.09;68.93
70242;BME280;57631;52.218;0.108;2022-09-09T05:50:55;100252.74;;;17.60;67.71
70242;BME280;57631;52.218;0.108;2022-09-09T05:53:21;100256.41;;;16.80;69.65
70242;BME280;57631;52.218;0.108;2022-09-09T05:55:46;100260.59;;;17.01;68.62
70242;BME280;57631;52.218;0.108;2022-09-09T05:58:11;100265.86;;;16.86;69.49
70242;BME280;57631;52.218;0.108;2022-09-09T06:00:37;100268.83;;;16.54;70.33
70242;BME280;57631;52.218;0.108;2022-09-09T06:03:02;100267.81;;;16.42;71.28
70242;BME280;57631;52.218;0.108;2022-09-09T06:05:28;100265.98;;;16.51;69.84
70242;BME280;57631;52.218;0.108;2022-09-09T06:07:53;100269.10;;;17.07;68.19
70242;BME280;57631;52.218;0.108;2022-09-09T06:10:19;100269.75;;;16.68;70.12
70242;BME280;57631;52.218;0.108;2022-09-09T06:12:44;100273.38;;;17.12;68.08
70242;BME280;57631;52.218;0.108;2022-09-09T06:15:10;100277.15;;;17.07;69.03
70242;BME280;57631;52.218;0.108;2022-09-09T06:17:35;100277.99;;;17.05;68.81
70242;BME280;57631;52.218;0.108;2022-09-09T06:20:01;100278.92;;;17.25;67.67
70242;BME280;57631;52.218;0.108;2022-09-09T06:22:26;100286.83;;;16.32;70.66
70242;BME280;57631;52.218;0.108;2022-09-09T06:24:52;100287.18;;;16.19;70.09
70242;BME280;57631;52.218;0.108;2022-09-09T06:27:17;100290.76;;;16.46;70.96
70242;BME280;57631;52.218;0.108;2022-09-09T06:29:42;100295.05;;;16.66;70.60
70242;BME280;57631;52.218;0.108;2022-09-09T06:32:08;100296.19;;;16.01;73.10
70242;BME280;57631;52.218;0.108;2022-09-09T06:34:33;100292.54;;;16.09;74.94
70242;BME280;57631;52.218;0.108;2022-09-09T06:36:59;100299.09;;;16.38;74.54
70242;BME280;57631;52.218;0.108;2022-09-09T06:39:25;100296.91;;;15.89;75.34
70242;BME280;57631;52.218;0.108;2022-09-09T06:41:49;100303.49;;;16.78;74.26
70242;BME280;57631;52.218;0.108;2022-09-09T06:44:14;100302.67;;;15.49;75.92
70242;BME280;57631;52.218;0.108;2022-09-09T06:46:40;100307.04;;;16.03;75.49
70242;BME280;57631;52.218;0.108;2022-09-09T06:49:05;100310.35;;;16.37;74.58
70242;BME280;57631;52.218;0.108;2022-09-09T06:51:34;100312.17;;;16.35;74.73
70242;BME280;57631;52.218;0.108;2022-09-09T06:53:58;100315.99;;;16.77;74.15
70242;BME280;57631;52.218;0.108;2022-09-09T06:56:24;100315.21;;;16.12;75.85
70242;BME280;57631;52.218;0.108;2022-09-09T06:58:50;100313.21;;;16.02;76.41
70242;BME280;57631;52.218;0.108;2022-09-09T07:01:15;100317.37;;;16.03;75.97
70242;BME280;57631;52.218;0.108;2022-09-09T07:03:40;100317.39;;;16.02;76.42
70242;BME280;57631;52.218;0.108;2022-09-09T07:06:05;100321.23;;;15.75;77.87
70242;BME280;57631;52.218;0.108;2022-09-09T07:08:31;100324.66;;;15.24;79.06
70242;BME280;57631;52.218;0.108;2022-09-09T07:11:02;100324.86;;;15.64;78.53
70242;BME280;57631;52.218;0.108;2022-09-09T07:13:24;100324.57;;;16.25;76.45
70242;BME280;57631;52.218;0.108;2022-09-09T07:15:47;100326.74;;;16.33;76.86
70242;BME280;57631;52.218;0.108;2022-09-09T07:18:12;100326.37;;;16.30;77.20
70242;BME280;57631;52.218;0.108;2022-09-09T07:20:37;100331.76;;;16.34;75.99
70242;BME280;57631;52.218;0.108;2022-09-09T07:23:03;100335.37;;;16.38;76.23
70242;BME280;57631;52.218;0.108;2022-09-09T07:25:28;100343.19;;;16.22;75.44
70242;BME280;57631;52.218;0.108;2022-09-09T07:27:54;100348.13;;;16.14;77.47
70242;BME280;57631;52.218;0.108;2022-09-09T07:30:19;100348.47;;;15.89;77.80
70242;BME280;57631;52.218;0.108;2022-09-09T07:32:44;100348.70;;;16.27;76.84
70242;BME280;57631;52.218;0.108;2022-09-09T07:35:09;100350.85;;;15.81;78.19
70242;BME280;57631;52.218;0.108;2022-09-09T07:37:36;100353.94;;;15.80;77.54
70242;BME280;57631;52.218;0.108;2022-09-09T07:40:01;100357.41;;;16.26;75.74
70242;BME280;57631;52.218;0.108;2022-09-09T07:42:26;100363.90;;;16.52;74.65
70242;BME280;57631;52.218;0.108;2022-09-09T07:44:51;100365.09;;;15.97;76.11
70242;BME280;57631;52.218;0.108;2022-09-09T07:47:16;100369.45;;;16.12;78.61
70242;BME280;57631;52.218;0.108;2022-09-09T07:49:42;100374.23;;;16.26;77.64
70242;BME280;57631;52.218;0.108;2022-09-09T07:52:07;100374.08;;;16.04;76.41
70242;BME280;57631;52.218;0.108;2022-09-09T07:54:32;100380.13;;;16.05;77.26
70242;BME280;57631;52.218;0.108;2022-09-09T07:56:58;100384.66;;;15.97;77.92
70242;BME280;57631;52.218;0.108;2022-09-09T07:59:23;100386.27;;;16.45;76.19
70242;BME280;57631;52.218;0.108;2022-09-09T08:01:50;100388.73;;;16.72;76.13
70242;BME280;57631;52.218;0.108;2022-09-09T08:04:16;100395.18;;;16.18;75.45
70242;BME280;57631;52.218;0.108;2022-09-09T08:06:41;100393.40;;;16.27;77.22
70242;BME280;57631;52.218;0.108;2022-09-09T08:09:06;100396.52;;;16.92;75.36
70242;BME280;57631;52.218;0.108;2022-09-09T08:11:30;100399.71;;;16.12;76.64
70242;BME280;57631;52.218;0.108;2022-09-09T08:13:56;100404.42;;;16.27;77.68
70242;BME280;57631;52.218;0.108;2022-09-09T08:16:23;100406.59;;;15.81;77.43
70242;BME280;57631;52.218;0.108;2022-09-09T08:18:46;100411.94;;;16.54;76.00
70242;BME280;57631;52.218;0.108;2022-09-09T08:21:14;100411.17;;;16.59;76.27
70242;BME280;57631;52.218;0.108;2022-09-09T08:23:38;100418.53;;;16.25;76.61
70242;BME280;57631;52.218;0.108;2022-09-09T08:26:05;100422.92;;;16.61;76.26
70242;BME280;57631;52.218;0.108;2022-09-09T08:28:28;100426.44;;;16.60;76.19
70242;BME280;57631;52.218;0.108;2022-09-09T08:30:54;100427.40;;;16.38;75.60
70242;BME280;57631;52.218;0.108;2022-09-09T08:33:19;100431.20;;;16.89;74.95
70242;BME280;57631;52.218;0.108;2022-09-09T08:35:50;100435.61;;;16.28;75.53
70242;BME280;57631;52.218;0.108;2022-09-09T08:38:09;100437.06;;;16.80;74.48
70242;BME280;57631;52.218;0.108;2022-09-09T08:40:39;100435.87;;;17.08;75.35
70242;BME280;57631;52.218;0.108;2022-09-09T08:43:02;100436.98;;;17.67;72.40
70242;BME280;57631;52.218;0.108;2022-09-09T08:45:31;100437.64;;;17.93;70.71
70242;BME280;57631;52.218;0.108;2022-09-09T08:48:02;100438.94;;;18.45;69.38
70242;BME280;57631;52.218;0.108;2022-09-09T08:50:21;100440.24;;;18.83;68.67
70242;BME280;57631;52.218;0.108;2022-09-09T08:52:48;100436.80;;;18.84;67.22
70242;BME280;57631;52.218;0.108;2022-09-09T08:55:19;100441.74;;;18.06;68.45
70242;BME280;57631;52.218;0.108;2022-09-09T08:57:33;100442.97;;;18.12;67.66
70242;BME280;57631;52.218;0.108;2022-09-09T08:59:58;100448.63;;;18.40;68.47
70242;BME280;57631;52.218;0.108;2022-09-09T09:02:26;100449.16;;;18.31;68.27
70242;BME280;57631;52.218;0.108;2022-09-09T09:04:58;100452.25;;;18.08;69.75
70242;BME280;57631;52.218;0.108;2022-09-09T09:07:21;100452.38;;;18.36;67.69
70242;BME280;57631;52.218;0.108;2022-09-09T09:09:46;100457.96;;;18.59;67.79
70242;BME280;57631;52.218;0.108;2022-09-09T09:12:15;100460.87;;;18.79;68.18
70242;BME280;57631;52.218;0.108;2022-09-09T09:14:33;100466.68;;;18.96;68.01
70242;BME280;57631;52.218;0.108;2022-09-09T09:16:58;100468.79;;;18.72;67.94
70242;BME280;57631;52.218;0.108;2022-09-09T09:19:22;100470.80;;;18.97;66.28
70242;BME280;57631;52.218;0.108;2022-09-09T09:21:52;100472.29;;;18.85;65.46
70242;BME280;57631;52.218;0.108;2022-09-09T09:24:18;100469.68;;;19.36;65.56
70242;BME280;57631;52.218;0.108;2022-09-09T09:26:37;100479.05;;;18.95;65.07
70242;BME280;57631;52.218;0.108;2022-09-09T09:29:10;100486.02;;;18.82;66.70
70242;BME280;57631;52.218;0.108;2022-09-09T09:31:28;100492.04;;;18.40;66.96
70242;BME280;57631;52.218;0.108;2022-09-09T09:33:55;100494.35;;;18.45;67.84
70242;BME280;57631;52.218;0.108;2022-09-09T09:36:19;100496.84;;;19.04;66.09
70242;BME280;57631;52.218;0.108;2022-09-09T09:38:52;100497.67;;;18.86;66.26
70242;BME280;57631;52.218;0.108;2022-09-09T09:41:09;100499.60;;;18.67;65.88
70242;BME280;57631;52.218;0.108;2022-09-09T09:43:36;100503.73;;;18.44;66.54
70242;BME280;57631;52.218;0.108;2022-09-09T09:46:00;100508.84;;;18.96;66.67
70242;BME280;57631;52.218;0.108;2022-09-09T09:48:26;100510.53;;;18.49;66.21
70242;BME280;57631;52.218;0.108;2022-09-09T09:50:52;100514.23;;;18.46;66.86
70242;BME280;57631;52.218;0.108;2022-09-09T09:53:22;100513.02;;;19.02;66.79
70242;BME280;57631;52.218;0.108;2022-09-09T09:55:47;100510.14;;;18.79;66.00
70242;BME280;57631;52.218;0.108;2022-09-09T10:00:33;100508.51;;;20.23;61.96
70242;BME280;57631;52.218;0.108;2022-09-09T10:02:59;100506.88;;;20.51;61.82
70242;BME280;57631;52.218;0.108;2022-09-09T10:05:24;100499.88;;;21.54;57.71
70242;BME280;57631;52.218;0.108;2022-09-09T10:10:18;100500.11;;;22.34;53.84
70242;BME280;57631;52.218;0.108;2022-09-09T10:12:47;100501.85;;;21.82;54.46
70242;BME280;57631;52.218;0.108;2022-09-09T10:15:11;100504.81;;;21.72;55.05
70242;BME280;57631;52.218;0.108;2022-09-09T10:17:36;100505.89;;;21.41;54.84
70242;BME280;57631;52.218;0.108;2022-09-09T10:20:07;100501.84;;;21.84;54.19
70242;BME280;57631;52.218;0.108;2022-09-09T10:22:26;100502.70;;;22.20;53.80
70242;BME280;57631;52.218;0.108;2022-09-09T10:24:59;100505.23;;;23.19;50.99
70242;BME280;57631;52.218;0.108;2022-09-09T10:27:16;100506.12;;;22.92;50.59
70242;BME280;57631;52.218;0.108;2022-09-09T10:29:49;100509.51;;;22.63;52.32
70242;BME280;57631;52.218;0.108;2022-09-09T10:32:10;100506.59;;;22.30;51.58
70242;BME280;57631;52.218;0.108;2022-09-09T10:34:39;100512.10;;;22.67;51.42
70242;BME280;57631;52.218;0.108;2022-09-09T10:36:52;100512.26;;;22.58;51.68
70242;BME280;57631;52.218;0.108;2022-09-09T10:39:28;100518.29;;;22.90;50.77
70242;BME280;57631;52.218;0.108;2022-09-09T10:41:49;100516.98;;;21.68;52.36
70242;BME280;57631;52.218;0.108;2022-09-09T10:44:15;100514.46;;;22.49;51.53
70242;BME280;57631;52.218;0.108;2022-09-09T10:46:41;100516.97;;;22.77;51.52
70242;BME280;57631;52.218;0.108;2022-09-09T10:49:09;100524.00;;;21.51;52.97
70242;BME280;57631;52.218;0.108;2022-09-09T10:51:30;100525.86;;;22.06;52.09
70242;BME280;57631;52.218;0.108;2022-09-09T10:54:05;100524.34;;;21.82;52.29
70242;BME280;57631;52.218;0.108;2022-09-09T10:56:17;100525.89;;;22.98;50.60
70242;BME280;57631;52.218;0.108;2022-09-09T10:58:43;100527.05;;;23.31;49.24
70242;BME280;57631;52.218;0.108;2022-09-09T11:01:13;100532.17;;;21.36;52.87
70242;BME280;57631;52.218;0.108;2022-09-09T11:03:31;100531.53;;;21.52;52.43
70242;BME280;57631;52.218;0.108;2022-09-09T11:06:00;100536.45;;;21.94;52.49
70242;BME280;57631;52.218;0.108;2022-09-09T11:08:23;100534.11;;;22.90;49.60
70242;BME280;57631;52.218;0.108;2022-09-09T11:10:51;100537.28;;;23.01;49.09
70242;BME280;57631;52.218;0.108;2022-09-09T11:13:15;100533.60;;;23.14;49.29
70242;BME280;57631;52.218;0.108;2022-09-09T11:15:41;100544.19;;;21.62;51.94
70242;BME280;57631;52.218;0.108;2022-09-09T11:18:04;100542.66;;;21.29;52.02
70242;BME280;57631;52.218;0.108;2022-09-09T11:20:28;100544.80;;;21.66;51.84
70242;BME280;57631;52.218;0.108;2022-09-09T11:22:57;100542.35;;;21.91;51.67
70242;BME280;57631;52.218;0.108;2022-09-09T11:25:21;100551.65;;;21.70;52.49
70242;BME280;57631;52.218;0.108;2022-09-09T11:27:53;100546.73;;;22.46;50.30
70242;BME280;57631;52.218;0.108;2022-09-09T11:30:18;100549.68;;;23.39;47.33
70242;BME280;57631;52.218;0.108;2022-09-09T11:32:49;100545.60;;;24.40;44.98
70242;BME280;57631;52.218;0.108;2022-09-09T11:35:09;100547.91;;;24.40;45.31
70242;BME280;57631;52.218;0.108;2022-09-09T11:37:35;100548.98;;;25.47;43.21
70242;BME280;57631;52.218;0.108;2022-09-09T11:40:02;100549.14;;;25.66;42.57
70242;BME280;57631;52.218;0.108;2022-09-09T11:42:18;100551.53;;;25.55;42.04
70242;BME280;57631;52.218;0.108;2022-09-09T11:44:41;100548.44;;;25.24;42.67
70242;BME280;57631;52.218;0.108;2022-09-09T11:49:40;100555.34;;;24.18;44.13
70242;BME280;57631;52.218;0.108;2022-09-09T11:51:57;100547.02;;;25.92;42.12
70242;BME280;57631;52.218;0.108;2022-09-09T11:54:29;100537.03;;;27.27;39.12
70242;BME280;57631;52.218;0.108;2022-09-09T11:56:48;100541.41;;;26.63;40.73
70242;BME280;57631;52.218;0.108;2022-09-09T11:59:19;100545.27;;;25.88;41.02
70242;BME280;57631;52.218;0.108;2022-09-09T12:01:41;100542.10;;;25.07;41.56
70242;BME280;57631;52.218;0.108;2022-09-09T12:04:14;100545.58;;;25.14;41.30
70242;BME280;57631;52.218;0.108;2022-09-09T12:06:31;100538.01;;;26.34;39.47
70242;BME280;57631;52.218;0.108;2022-09-09T12:09:05;100539.95;;;27.41;36.77
70242;BME280;57631;52.218;0.108;2022-09-09T12:11:26;100537.95;;;27.43;37.21
70242;BME280;57631;52.218;0.108;2022-09-09T12:13:52;100536.27;;;27.23;38.26
70242;BME280;57631;52.218;0.108;2022-09-09T12:18:38;100539.29;;;26.94;38.01
70242;BME280;57631;52.218;0.108;2022-09-09T12:21:06;100541.34;;;26.46;38.27
70242;BME280;57631;52.218;0.108;2022-09-09T12:23:35;100541.17;;;27.98;35.58
70242;BME280;57631;52.218;0.108;2022-09-09T12:26:01;100536.03;;;29.32;33.69
70242;BME280;57631;52.218;0.108;2022-09-09T12:28:18;100536.75;;;29.03;32.57
70242;BME280;57631;52.218;0.108;2022-09-09T12:30:49;100532.18;;;30.02;32.02
70242;BME280;57631;52.218;0.108;2022-09-09T12:33:11;100531.92;;;29.51;32.23
70242;BME280;57631;52.218;0.108;2022-09-09T12:35:33;100536.84;;;28.19;34.21
70242;BME280;57631;52.218;0.108;2022-09-09T12:38:00;100537.38;;;28.04;34.77
70242;BME280;57631;52.218;0.108;2022-09-09T12:40:25;100527.73;;;29.38;32.15
70242;BME280;57631;52.218;0.108;2022-09-09T12:42:49;100526.69;;;30.45;31.46
70242;BME280;57631;52.218;0.108;2022-09-09T12:45:18;100523.09;;;31.24;29.49
70242;BME280;57631;52.218;0.108;2022-09-09T12:47:43;100527.82;;;30.07;31.33
70242;BME280;57631;52.218;0.108;2022-09-09T12:52:33;100526.08;;;30.75;29.84
70242;BME280;57631;52.218;0.108;2022-09-09T12:54:55;100530.48;;;29.60;30.84